sensor_id;sensor_type;location;lat;lon;timestamp;pressure;altitude;pressure_sealevel;temperature;humidity
18167;BME280;9208;42.688;23.404;2023-04-30T00:01:27;95183.53;;;12.77;100.00
18167;BME280;9208;42.688;23.404;2023-04-30T00:03:52;95183.78;;;12.74;100.00
18167;BME280;9208;42.688;23.404;2023-04-30T00:06:18;95180.03;;;12.71;100.00
18167;BME280;9208;42.688;23.404;2023-04-30T00:08:43;95179.75;;;12.64;100.00
18167;BME280;9208;42.688;23.404;2023-04-30T00:11:08;95176.47;;;12.54;100.00
18167;BME280;9208;42.688;23.404;2023-04-30T00:13:34;95176.72;;;12.51;100.00
18167;BME280;9208;42.688;23.404;2023-04-30T00:15:59;95176.97;;;12.47;100.00
18167;BME280;9208;42.688;23.404;2023-04-30T00:18:25;95182.97;;;12.46;100.00
18167;BME280;9208;42.688;23.404;2023-04-30T00:20:50;95172.19;;;12.37;100.00
18167;BME280;9208;42.688;23.404;2023-04-30T00:23:17;95167.66;;;12.23;100.00
18167;BME280;9208;42.688;23.404;2023-04-30T00:25:43;95177.66;;;12.26;100.00
18167;BME280;9208;42.688;23.404;2023-04-30T00:28:08;95170.13;;;12.21;100.00
18167;BME280;9208;42.688;23.404;2023-04-30T00:30:34;95165.38;;;12.16;100.00
18167;BME280;9208;42.688;23.404;2023-04-30T00:32:59;95172.38;;;12.11;100.00
18167;BME280;9208;42.688;23.404;2023-04-30T00:35:25;95178.56;;;12.06;100.00
18167;BME280;9208;42.688;23.404;2023-04-30T00:37:50;95176.03;;;11.92;100.00
18167;BME280;9208;42.688;23.404;2023-04-30T00:40:16;95180.53;;;11.95;100.00
18167;BME280;9208;42.688;23.404;2023-04-30T00:42:41;95181.00;;;11.88;100.00
18167;BME280;9208;42.688;23.404;2023-04-30T00:45:07;95185.44;;;11.80;100.00
18167;BME280;9208;42.688;23.404;2023-04-30T00:47:33;95179.97;;;11.80;100.00
18167;BME280;9208;42.688;23.404;2023-04-30T00:49:58;95178.66;;;11.70;100.00
18167;BME280;9208;42.688;23.404;2023-04-30T00:52:24;95176.94;;;11.72;100.00
18167;BME280;9208;42.688;23.404;2023-04-30T00:54:50;95178.91;;;11.72;100.00
18167;BME280;9208;42.688;23.404;2023-04-30T00:57:18;95176.16;;;11.72;100.00
18167;BME280;9208;42.688;23.404;2023-04-30T00:59:44;95176.88;;;11.67;100.00
18167;BME280;9208;42.688;23.404;2023-04-30T01:02:11;95173.91;;;11.65;100.00
18167;BME280;9208;42.688;23.404;2023-04-30T01:04:37;95177.28;;;11.54;100.00
18167;BME280;9208;42.688;23.404;2023-04-30T01:07:03;95174.25;;;11.47;100.00
18167;BME280;9208;42.688;23.404;2023-04-30T01:09:29;95168.44;;;11.39;100.00
18167;BME280;9208;42.688;23.404;2023-04-30T01:17:22;95173.09;;;11.28;100.00
18167;BME280;9208;42.688;23.404;2023-04-30T01:19:50;95172.38;;;11.27;100.00
18167;BME280;9208;42.688;23.404;2023-04-30T01:22:31;95163.63;;;11.23;100.00
18167;BME280;9208;42.688;23.404;2023-04-30T01:28:08;95174.81;;;11.20;100.00
18167;BME280;9208;42.688;23.404;2023-04-30T01:30:35;95158.00;;;11.07;100.00
18167;BME280;9208;42.688;23.404;2023-04-30T01:33:01;95168.81;;;11.16;100.00
18167;BME280;9208;42.688;23.404;2023-04-30T01:43:54;95172.06;;;11.20;100.00
18167;BME280;9208;42.688;23.404;2023-04-30T01:46:25;95179.28;;;11.17;100.00
18167;BME280;9208;42.688;23.404;2023-04-30T01:48:54;95176.22;;;11.10;100.00
18167;BME280;9208;42.688;23.404;2023-04-30T01:51:41;95169.19;;;11.03;100.00
18167;BME280;9208;42.688;23.404;2023-04-30T01:54:34;95176.69;;;11.03;100.00
18167;BME280;9208;42.688;23.404;2023-04-30T01:57:05;95171.19;;;11.03;100.00
18167;BME280;9208;42.688;23.404;2023-04-30T01:59:32;95156.94;;;10.99;100.00
18167;BME280;9208;42.688;23.404;2023-04-30T02:01:59;95169.66;;;10.96;100.00
18167;BME280;9208;42.688;23.404;2023-04-30T02:04:24;95168.34;;;10.92;100.00
18167;BME280;9208;42.688;23.404;2023-04-30T02:06:50;95170.84;;;10.90;100.00
18167;BME280;9208;42.688;23.404;2023-04-30T02:09:15;95175.34;;;10.93;100.00
18167;BME280;9208;42.688;23.404;2023-04-30T02:11:41;95172.34;;;10.91;100.00
18167;BME280;9208;42.688;23.404;2023-04-30T02:14:06;95169.34;;;10.89;100.00
18167;BME280;9208;42.688;23.404;2023-04-30T02:16:31;95172.63;;;10.93;100.00
18167;BME280;9208;42.688;23.404;2023-04-30T02:18:57;95170.34;;;10.91;100.00
18167;BME280;9208;42.688;23.404;2023-04-30T02:21:22;95175.63;;;10.95;100.00
18167;BME280;9208;42.688;23.404;2023-04-30T02:23:48;95180.56;;;10.91;100.00
18167;BME280;9208;42.688;23.404;2023-04-30T02:26:13;95165.09;;;10.88;100.00
18167;BME280;9208;42.688;23.404;2023-04-30T02:28:39;95171.78;;;10.87;100.00
18167;BME280;9208;42.688;23.404;2023-04-30T02:31:04;95166.78;;;10.85;100.00
18167;BME280;9208;42.688;23.404;2023-04-30T02:33:30;95163.03;;;10.83;100.00
18167;BME280;9208;42.688;23.404;2023-04-30T02:35:58;95175.56;;;10.89;100.00
18167;BME280;9208;42.688;23.404;2023-04-30T02:38:25;95173.53;;;10.84;100.00
18167;BME280;9208;42.688;23.404;2023-04-30T02:40:50;95173.03;;;10.86;100.00
18167;BME280;9208;42.688;23.404;2023-04-30T02:43:15;95173.03;;;10.86;100.00
18167;BME280;9208;42.688;23.404;2023-04-30T02:45:41;95176.53;;;10.86;100.00
18167;BME280;9208;42.688;23.404;2023-04-30T02:48:06;95177.09;;;10.90;100.00
18167;BME280;9208;42.688;23.404;2023-04-30T02:50:32;95182.59;;;10.96;100.00
18167;BME280;9208;42.688;23.404;2023-04-30T02:52:57;95181.56;;;10.93;100.00
18167;BME280;9208;42.688;23.404;2023-04-30T02:55:23;95168.50;;;10.83;100.00
18167;BME280;9208;42.688;23.404;2023-04-30T02:57:48;95179.81;;;10.90;100.00
18167;BME280;9208;42.688;23.404;2023-04-30T03:00:14;95180.78;;;10.87;100.00
18167;BME280;9208;42.688;23.404;2023-04-30T03:02:39;95185.09;;;10.94;100.00
18167;BME280;9208;42.688;23.404;2023-04-30T03:05:05;95183.13;;;11.00;100.00
18167;BME280;9208;42.688;23.404;2023-04-30T03:07:31;95182.41;;;11.05;100.00
18167;BME280;9208;42.688;23.404;2023-04-30T03:09:56;95194.88;;;11.00;100.00
18167;BME280;9208;42.688;23.404;2023-04-30T03:12:21;95195.13;;;11.02;100.00
18167;BME280;9208;42.688;23.404;2023-04-30T03:14:47;95198.88;;;11.05;100.00
18167;BME280;9208;42.688;23.404;2023-04-30T03:17:12;95201.44;;;11.14;100.00
18167;BME280;9208;42.688;23.404;2023-04-30T03:19:38;95194.03;;;11.20;100.00
18167;BME280;9208;42.688;23.404;2023-04-30T03:22:03;95195.25;;;11.19;100.00
18167;BME280;9208;42.688;23.404;2023-04-30T03:24:28;95198.69;;;11.08;100.00
18167;BME280;9208;42.688;23.404;2023-04-30T03:26:54;95199.59;;;11.00;100.00
18167;BME280;9208;42.688;23.404;2023-04-30T03:29:19;95194.31;;;10.96;100.00
18167;BME280;9208;42.688;23.404;2023-04-30T03:31:45;95199.53;;;10.94;100.00
18167;BME280;9208;42.688;23.404;2023-04-30T03:34:10;95206.78;;;10.97;100.00
18167;BME280;9208;42.688;23.404;2023-04-30T03:36:36;95200.56;;;10.97;100.00
18167;BME280;9208;42.688;23.404;2023-04-30T03:39:02;95207.56;;;10.98;100.00
18167;BME280;9208;42.688;23.404;2023-04-30T03:41:28;95207.03;;;10.94;100.00
18167;BME280;9208;42.688;23.404;2023-04-30T03:43:54;95218.94;;;10.91;100.00
18167;BME280;9208;42.688;23.404;2023-04-30T03:46:19;95216.66;;;10.84;100.00
18167;BME280;9208;42.688;23.404;2023-04-30T03:48:48;95218.69;;;10.89;100.00
18167;BME280;9208;42.688;23.404;2023-04-30T03:51:14;95222.94;;;10.90;100.00
18167;BME280;9208;42.688;23.404;2023-04-30T03:53:39;95225.91;;;10.86;100.00
18167;BME280;9208;42.688;23.404;2023-04-30T03:56:05;95222.63;;;10.82;100.00
18167;BME280;9208;42.688;23.404;2023-04-30T03:58:31;95230.84;;;10.82;100.00
18167;BME280;9208;42.688;23.404;2023-04-30T04:00:56;95229.13;;;10.85;100.00
18167;BME280;9208;42.688;23.404;2023-04-30T04:03:22;95228.38;;;10.84;100.00
18167;BME280;9208;42.688;23.404;2023-04-30T04:05:47;95228.66;;;10.86;100.00
18167;BME280;9208;42.688;23.404;2023-04-30T04:08:13;95229.88;;;10.85;100.00
18167;BME280;9208;42.688;23.404;2023-04-30T04:10:38;95221.59;;;10.80;100.00
18167;BME280;9208;42.688;23.404;2023-04-30T04:13:05;95230.41;;;10.89;100.00
18167;BME280;9208;42.688;23.404;2023-04-30T04:15:31;95231.97;;;10.96;100.00
18167;BME280;9208;42.688;23.404;2023-04-30T04:17:57;95233.69;;;10.93;100.00
18167;BME280;9208;42.688;23.404;2023-04-30T04:20:22;95231.00;;;10.99;100.00
18167;BME280;9208;42.688;23.404;2023-04-30T04:22:48;95234.75;;;11.01;100.00
18167;BME280;9208;42.688;23.404;2023-04-30T04:25:13;95237.97;;;11.00;100.00
18167;BME280;9208;42.688;23.404;2023-04-30T04:27:39;95243.00;;;11.01;100.00
18167;BME280;9208;42.688;23.404;2023-04-30T04:30:05;95231.78;;;11.05;100.00
18167;BME280;9208;42.688;23.404;2023-04-30T04:32:31;95245.34;;;11.14;100.00
18167;BME280;9208;42.688;23.404;2023-04-30T04:34:57;95234.34;;;11.08;100.00
18167;BME280;9208;42.688;23.404;2023-04-30T04:37:22;95246.34;;;11.16;100.00
18167;BME280;9208;42.688;23.404;2023-04-30T04:39:48;95240.38;;;11.18;100.00
18167;BME280;9208;42.688;23.404;2023-04-30T04:42:16;95254.66;;;11.22;100.00
18167;BME280;9208;42.688;23.404;2023-04-30T04:44:45;95242.41;;;11.23;100.00
18167;BME280;9208;42.688;23.404;2023-04-30T04:47:11;95256.72;;;11.32;100.00
18167;BME280;9208;42.688;23.404;2023-04-30T04:49:37;95253.22;;;11.32;100.00
18167;BME280;9208;42.688;23.404;2023-04-30T04:52:02;95254.56;;;11.42;100.00
18167;BME280;9208;42.688;23.404;2023-04-30T04:54:28;95262.34;;;11.49;100.00
18167;BME280;9208;42.688;23.404;2023-04-30T04:56:53;95257.81;;;11.40;100.00
18167;BME280;9208;42.688;23.404;2023-04-30T04:59:19;95264.19;;;11.32;100.00
18167;BME280;9208;42.688;23.404;2023-04-30T05:01:45;95274.22;;;11.35;100.00
18167;BME280;9208;42.688;23.404;2023-04-30T05:04:10;95273.97;;;11.38;100.00
18167;BME280;9208;42.688;23.404;2023-04-30T05:06:37;95274.25;;;11.40;100.00
18167;BME280;9208;42.688;23.404;2023-04-30T05:09:03;95267.06;;;11.43;100.00
18167;BME280;9208;42.688;23.404;2023-04-30T05:11:31;95273.06;;;11.47;100.00
18167;BME280;9208;42.688;23.404;2023-04-30T05:13:56;95271.59;;;11.51;100.00
18167;BME280;9208;42.688;23.404;2023-04-30T05:16:22;95273.31;;;11.49;100.00
18167;BME280;9208;42.688;23.404;2023-04-30T05:18:47;95276.34;;;11.51;100.00
18167;BME280;9208;42.688;23.404;2023-04-30T05:21:13;95270.31;;;11.47;100.00
18167;BME280;9208;42.688;23.404;2023-04-30T05:23:38;95273.81;;;11.47;100.00
18167;BME280;9208;42.688;23.404;2023-04-30T05:26:04;95273.56;;;11.45;100.00
18167;BME280;9208;42.688;23.404;2023-04-30T05:28:29;95273.09;;;11.52;100.00
18167;BME280;9208;42.688;23.404;2023-04-30T05:30:55;95275.31;;;11.48;100.00
18167;BME280;9208;42.688;23.404;2023-04-30T05:33:20;95269.09;;;11.48;100.00
18167;BME280;9208;42.688;23.404;2023-04-30T05:35:45;95267.31;;;11.45;100.00
18167;BME280;9208;42.688;23.404;2023-04-30T05:38:11;95272.91;;;11.56;100.00
18167;BME280;9208;42.688;23.404;2023-04-30T05:40:36;95270.41;;;11.58;100.00
18167;BME280;9208;42.688;23.404;2023-04-30T05:43:02;95275.69;;;11.61;100.00
18167;BME280;9208;42.688;23.404;2023-04-30T05:45:27;95275.22;;;11.63;100.00
18167;BME280;9208;42.688;23.404;2023-04-30T05:47:53;95275.28;;;11.74;100.00
18167;BME280;9208;42.688;23.404;2023-04-30T05:50:18;95268.81;;;11.77;100.00
18167;BME280;9208;42.688;23.404;2023-04-30T05:52:44;95280.31;;;11.75;100.00
18167;BME280;9208;42.688;23.404;2023-04-30T05:55:09;95268.81;;;11.77;100.00
18167;BME280;9208;42.688;23.404;2023-04-30T05:57:35;95273.88;;;11.84;100.00
18167;BME280;9208;42.688;23.404;2023-04-30T06:00:01;95271.59;;;11.82;100.00
18167;BME280;9208;42.688;23.404;2023-04-30T06:02:27;95273.38;;;11.85;100.00
18167;BME280;9208;42.688;23.404;2023-04-30T06:04:52;95276.84;;;11.86;100.00
18167;BME280;9208;42.688;23.404;2023-04-30T06:07:18;95271.38;;;11.86;100.00
18167;BME280;9208;42.688;23.404;2023-04-30T06:09:43;95277.13;;;11.88;100.00
18167;BME280;9208;42.688;23.404;2023-04-30T06:12:09;95283.69;;;11.96;100.00
18167;BME280;9208;42.688;23.404;2023-04-30T06:14:34;95277.66;;;11.92;100.00
18167;BME280;9208;42.688;23.404;2023-04-30T06:17:00;95276.41;;;11.93;100.00
18167;BME280;9208;42.688;23.404;2023-04-30T06:19:26;95287.22;;;12.02;100.00
18167;BME280;9208;42.688;23.404;2023-04-30T06:21:51;95282.97;;;12.01;100.00
18167;BME280;9208;42.688;23.404;2023-04-30T06:24:17;95291.53;;;12.14;100.00
18167;BME280;9208;42.688;23.404;2023-04-30T06:26:42;95291.25;;;12.12;100.00
18167;BME280;9208;42.688;23.404;2023-04-30T06:29:08;95293.81;;;12.21;100.00
18167;BME280;9208;42.688;23.404;2023-04-30T06:31:33;95294.56;;;12.21;100.00
18167;BME280;9208;42.688;23.404;2023-04-30T06:33:59;95289.59;;;12.31;100.00
18167;BME280;9208;42.688;23.404;2023-04-30T06:36:24;95290.41;;;12.37;100.00
18167;BME280;9208;42.688;23.404;2023-04-30T06:38:50;95299.66;;;12.39;100.00
18167;BME280;9208;42.688;23.404;2023-04-30T06:41:15;95297.44;;;12.43;100.00
18167;BME280;9208;42.688;23.404;2023-04-30T06:43:42;95299.69;;;12.50;100.00
18167;BME280;9208;42.688;23.404;2023-04-30T06:46:07;95288.72;;;12.56;100.00
18167;BME280;9208;42.688;23.404;2023-04-30T06:48:33;95297.25;;;12.63;100.00
18167;BME280;9208;42.688;23.404;2023-04-30T06:50:59;95300.53;;;12.67;100.00
18167;BME280;9208;42.688;23.404;2023-04-30T06:53:27;95285.06;;;12.75;100.00
18167;BME280;9208;42.688;23.404;2023-04-30T06:55:52;95279.31;;;12.79;100.00
18167;BME280;9208;42.688;23.404;2023-04-30T06:58:20;95294.59;;;12.91;100.00
18167;BME280;9208;42.688;23.404;2023-04-30T07:00:46;95289.91;;;13.02;100.00
18167;BME280;9208;42.688;23.404;2023-04-30T07:03:11;95294.91;;;13.04;100.00
18167;BME280;9208;42.688;23.404;2023-04-30T07:05:38;95285.66;;;13.07;100.00
18167;BME280;9208;42.688;23.404;2023-04-30T07:08:03;95295.91;;;13.12;100.00
18167;BME280;9208;42.688;23.404;2023-04-30T07:10:29;95292.94;;;13.21;100.00
18167;BME280;9208;42.688;23.404;2023-04-30T07:12:55;95291.47;;;13.31;100.00
18167;BME280;9208;42.688;23.404;2023-04-30T07:15:21;95294.72;;;13.40;100.00
18167;BME280;9208;42.688;23.404;2023-04-30T07:17:47;95297.97;;;13.50;100.00
18167;BME280;9208;42.688;23.404;2023-04-30T07:20:13;95303.25;;;13.59;100.00
18167;BME280;9208;42.688;23.404;2023-04-30T07:22:41;95300.47;;;13.59;100.00
18167;BME280;9208;42.688;23.404;2023-04-30T07:25:13;95297.72;;;13.53;100.00
18167;BME280;9208;42.688;23.404;2023-04-30T07:27:39;95306.50;;;13.57;100.00
18167;BME280;9208;42.688;23.404;2023-04-30T07:30:05;95287.47;;;13.48;100.00
18167;BME280;9208;42.688;23.404;2023-04-30T07:32:31;95303.25;;;13.64;100.00
18167;BME280;9208;42.688;23.404;2023-04-30T07:34:56;95298.47;;;13.65;100.00
18167;BME280;9208;42.688;23.404;2023-04-30T07:37:22;95290.22;;;13.76;100.00
18167;BME280;9208;42.688;23.404;2023-04-30T07:39:48;95299.22;;;13.82;100.00
18167;BME280;9208;42.688;23.404;2023-04-30T07:42:13;95297.72;;;13.92;100.00
18167;BME280;9208;42.688;23.404;2023-04-30T07:44:39;95302.22;;;13.95;99.73
18167;BME280;9208;42.688;23.404;2023-04-30T07:47:05;95303.94;;;14.03;98.39
18167;BME280;9208;42.688;23.404;2023-04-30T07:49:30;95292.69;;;14.07;97.99
18167;BME280;9208;42.688;23.404;2023-04-30T07:51:56;95302.19;;;14.11;97.38
18167;BME280;9208;42.688;23.404;2023-04-30T07:54:22;95298.41;;;14.20;97.16
18167;BME280;9208;42.688;23.404;2023-04-30T07:56:47;95308.97;;;14.27;95.99
18167;BME280;9208;42.688;23.404;2023-04-30T07:59:13;95309.47;;;14.25;95.62
18167;BME280;9208;42.688;23.404;2023-04-30T08:01:38;95306.44;;;14.29;95.50
18167;BME280;9208;42.688;23.404;2023-04-30T08:04:04;95302.94;;;14.34;94.86
18167;BME280;9208;42.688;23.404;2023-04-30T08:06:31;95302.94;;;14.34;93.91
18167;BME280;9208;42.688;23.404;2023-04-30T08:08:56;95305.94;;;14.36;93.40
18167;BME280;9208;42.688;23.404;2023-04-30T08:11:22;95301.13;;;14.42;92.54
18167;BME280;9208;42.688;23.404;2023-04-30T08:13:47;95299.13;;;14.48;92.51
18167;BME280;9208;42.688;23.404;2023-04-30T08:16:13;95310.38;;;14.55;90.86
18167;BME280;9208;42.688;23.404;2023-04-30T08:18:38;95311.59;;;14.65;89.41
18167;BME280;9208;42.688;23.404;2023-04-30T08:21:08;95304.31;;;14.68;87.59
18167;BME280;9208;42.688;23.404;2023-04-30T08:23:33;95307.00;;;14.84;85.72
18167;BME280;9208;42.688;23.404;2023-04-30T08:26:03;95314.47;;;14.95;84.11
18167;BME280;9208;42.688;23.404;2023-04-30T08:28:29;95300.69;;;14.95;83.09
18167;BME280;9208;42.688;23.404;2023-04-30T08:30:55;95306.88;;;15.12;81.96
18167;BME280;9208;42.688;23.404;2023-04-30T08:33:20;95309.34;;;15.15;81.04
18167;BME280;9208;42.688;23.404;2023-04-30T08:35:45;95308.09;;;15.16;80.06
18167;BME280;9208;42.688;23.404;2023-04-30T08:38:11;95305.03;;;15.25;79.77
18167;BME280;9208;42.688;23.404;2023-04-30T08:40:38;95294.97;;;15.28;82.98
18167;BME280;9208;42.688;23.404;2023-04-30T08:43:08;95292.69;;;15.37;84.63
18167;BME280;9208;42.688;23.404;2023-04-30T08:45:34;95289.19;;;15.37;90.27
18167;BME280;9208;42.688;23.404;2023-04-30T08:48:02;95290.16;;;15.39;94.07
18167;BME280;9208;42.688;23.404;2023-04-30T08:50:29;95279.38;;;15.36;96.84
18167;BME280;9208;42.688;23.404;2023-04-30T08:52:57;95287.59;;;15.47;95.45
18167;BME280;9208;42.688;23.404;2023-04-30T08:55:25;95285.31;;;15.51;93.57
18167;BME280;9208;42.688;23.404;2023-04-30T08:57:51;95288.47;;;15.60;91.17
18167;BME280;9208;42.688;23.404;2023-04-30T09:00:16;95289.72;;;15.65;85.19
18167;BME280;9208;42.688;23.404;2023-04-30T09:02:42;95290.41;;;15.71;83.34
18167;BME280;9208;42.688;23.404;2023-04-30T09:05:10;95290.34;;;15.82;79.45
18167;BME280;9208;42.688;23.404;2023-04-30T09:07:38;95289.25;;;15.90;77.24
18167;BME280;9208;42.688;23.404;2023-04-30T09:10:13;95295.47;;;15.96;73.89
18167;BME280;9208;42.688;23.404;2023-04-30T09:12:40;95287.81;;;16.08;72.51
18167;BME280;9208;42.688;23.404;2023-04-30T09:15:07;95290.66;;;16.26;70.18
18167;BME280;9208;42.688;23.404;2023-04-30T09:17:34;95291.06;;;16.36;67.73
18167;BME280;9208;42.688;23.404;2023-04-30T09:22:31;95282.78;;;16.60;65.82
18167;BME280;9208;42.688;23.404;2023-04-30T09:24:57;95284.88;;;16.72;65.11
18167;BME280;9208;42.688;23.404;2023-04-30T09:27:22;95281.19;;;16.88;62.98
18167;BME280;9208;42.688;23.404;2023-04-30T09:29:48;95297.56;;;17.05;61.67
18167;BME280;9208;42.688;23.404;2023-04-30T09:32:14;95289.34;;;17.18;60.81
18167;BME280;9208;42.688;23.404;2023-04-30T09:34:39;95294.06;;;17.23;59.39
18167;BME280;9208;42.688;23.404;2023-04-30T09:37:05;95298.91;;;17.35;58.96
18167;BME280;9208;42.688;23.404;2023-04-30T09:39:32;95293.97;;;17.47;57.89
18167;BME280;9208;42.688;23.404;2023-04-30T09:42:09;95295.53;;;17.61;57.50
18167;BME280;9208;42.688;23.404;2023-04-30T09:44:39;95300.38;;;17.73;56.32
18167;BME280;9208;42.688;23.404;2023-04-30T09:47:17;95311.53;;;17.86;54.35
18167;BME280;9208;42.688;23.404;2023-04-30T09:49:49;95324.69;;;17.99;53.13
18167;BME280;9208;42.688;23.404;2023-04-30T09:52:18;95327.06;;;18.08;52.04
18167;BME280;9208;42.688;23.404;2023-04-30T09:54:45;95332.63;;;18.21;51.75
18167;BME280;9208;42.688;23.404;2023-04-30T09:57:12;95345.88;;;18.28;50.64
18167;BME280;9208;42.688;23.404;2023-04-30T09:59:45;95334.91;;;18.35;50.93
18167;BME280;9208;42.688;23.404;2023-04-30T10:02:14;95340.59;;;18.43;49.97
18167;BME280;9208;42.688;23.404;2023-04-30T10:04:46;95342.72;;;18.37;49.48
18167;BME280;9208;42.688;23.404;2023-04-30T10:07:19;95332.38;;;18.38;49.70
18167;BME280;9208;42.688;23.404;2023-04-30T10:10:23;95331.31;;;18.41;49.45
18167;BME280;9208;42.688;23.404;2023-04-30T10:12:53;95329.72;;;18.45;49.26
18167;BME280;9208;42.688;23.404;2023-04-30T10:15:27;95317.28;;;18.33;50.52
18167;BME280;9208;42.688;23.404;2023-04-30T10:17:59;95313.28;;;18.15;50.37
18167;BME280;9208;42.688;23.404;2023-04-30T10:20:26;95296.09;;;18.04;51.70
18167;BME280;9208;42.688;23.404;2023-04-30T10:22:53;95260.63;;;17.84;54.65
18167;BME280;9208;42.688;23.404;2023-04-30T10:25:19;95220.88;;;17.50;58.58
18167;BME280;9208;42.688;23.404;2023-04-30T10:27:45;95203.06;;;17.27;60.32
18167;BME280;9208;42.688;23.404;2023-04-30T10:30:11;95196.84;;;17.21;61.60
18167;BME280;9208;42.688;23.404;2023-04-30T10:35:25;95202.56;;;17.10;64.17
18167;BME280;9208;42.688;23.404;2023-04-30T10:38:09;95209.22;;;17.20;65.63
18167;BME280;9208;42.688;23.404;2023-04-30T10:40:37;95201.00;;;17.14;69.42
18167;BME280;9208;42.688;23.404;2023-04-30T10:43:02;95140.16;;;17.09;86.86
18167;BME280;9208;42.688;23.404;2023-04-30T10:45:38;95202.50;;;16.97;89.10
18167;BME280;9208;42.688;23.404;2023-04-30T10:48:06;95226.38;;;16.81;81.70
18167;BME280;9208;42.688;23.404;2023-04-30T10:50:31;95252.00;;;16.87;87.45
18167;BME280;9208;42.688;23.404;2023-04-30T10:53:04;95244.22;;;16.86;89.38
18167;BME280;9208;42.688;23.404;2023-04-30T10:55:30;95233.59;;;16.90;94.41
18167;BME280;9208;42.688;23.404;2023-04-30T10:57:59;95246.28;;;16.98;94.88
18167;BME280;9208;42.688;23.404;2023-04-30T11:00:26;95248.25;;;17.03;89.98
18167;BME280;9208;42.688;23.404;2023-04-30T11:02:57;95245.16;;;17.07;84.51
18167;BME280;9208;42.688;23.404;2023-04-30T11:05:41;95246.81;;;17.15;81.33
18167;BME280;9208;42.688;23.404;2023-04-30T11:08:10;95246.72;;;17.21;77.06
18167;BME280;9208;42.688;23.404;2023-04-30T11:10:35;95252.72;;;17.25;72.54
18167;BME280;9208;42.688;23.404;2023-04-30T11:13:05;95262.22;;;17.29;68.31
18167;BME280;9208;42.688;23.404;2023-04-30T11:15:39;95267.63;;;17.40;65.84
18167;BME280;9208;42.688;23.404;2023-04-30T11:18:08;95270.25;;;17.51;65.10
18167;BME280;9208;42.688;23.404;2023-04-30T11:20:39;95319.38;;;17.51;56.04
18167;BME280;9208;42.688;23.404;2023-04-30T11:23:15;95268.00;;;17.50;62.48
18167;BME280;9208;42.688;23.404;2023-04-30T11:25:46;95276.69;;;17.41;60.23
18167;BME280;9208;42.688;23.404;2023-04-30T11:28:19;95290.47;;;17.46;58.68
18167;BME280;9208;42.688;23.404;2023-04-30T11:30:52;95254.56;;;17.35;63.86
18167;BME280;9208;42.688;23.404;2023-04-30T11:33:18;95157.84;;;17.19;86.16
18167;BME280;9208;42.688;23.404;2023-04-30T11:35:44;95237.16;;;16.85;93.56
18167;BME280;9208;42.688;23.404;2023-04-30T11:38:11;95242.69;;;16.66;91.14
18167;BME280;9208;42.688;23.404;2023-04-30T11:40:37;95231.59;;;16.48;99.16
18167;BME280;9208;42.688;23.404;2023-04-30T11:43:03;95227.28;;;16.52;100.00
18167;BME280;9208;42.688;23.404;2023-04-30T11:45:28;95229.97;;;16.34;100.00
18167;BME280;9208;42.688;23.404;2023-04-30T11:47:55;95230.63;;;16.21;100.00
18167;BME280;9208;42.688;23.404;2023-04-30T11:50:23;95214.94;;;16.05;100.00
18167;BME280;9208;42.688;23.404;2023-04-30T11:52:55;95232.69;;;16.15;100.00
18167;BME280;9208;42.688;23.404;2023-04-30T11:55:25;95225.50;;;16.07;100.00
18167;BME280;9208;42.688;23.404;2023-04-30T11:57:53;95226.97;;;16.08;100.00
18167;BME280;9208;42.688;23.404;2023-04-30T12:00:28;95218.34;;;16.17;100.00
18167;BME280;9208;42.688;23.404;2023-04-30T12:02:55;95223.88;;;16.17;100.00
18167;BME280;9208;42.688;23.404;2023-04-30T12:05:22;95227.97;;;16.34;100.00
18167;BME280;9208;42.688;23.404;2023-04-30T12:07:50;95228.38;;;16.44;100.00
18167;BME280;9208;42.688;23.404;2023-04-30T12:10:18;95235.06;;;16.54;100.00
18167;BME280;9208;42.688;23.404;2023-04-30T12:12:44;95230.03;;;16.52;100.00
18167;BME280;9208;42.688;23.404;2023-04-30T12:15:17;95229.88;;;16.63;100.00
18167;BME280;9208;42.688;23.404;2023-04-30T12:17:44;95236.84;;;16.70;99.71
18167;BME280;9208;42.688;23.404;2023-04-30T12:20:12;95229.59;;;16.67;100.00
18167;BME280;9208;42.688;23.404;2023-04-30T12:22:38;95247.25;;;16.64;100.00
18167;BME280;9208;42.688;23.404;2023-04-30T12:25:22;95259.38;;;16.61;100.00
18167;BME280;9208;42.688;23.404;2023-04-30T12:27:50;95255.00;;;16.47;100.00
18167;BME280;9208;42.688;23.404;2023-04-30T12:30:19;95260.88;;;16.38;100.00
18167;BME280;9208;42.688;23.404;2023-04-30T12:32:49;95253.69;;;16.29;100.00
18167;BME280;9208;42.688;23.404;2023-04-30T12:35:20;95245.94;;;16.22;100.00
18167;BME280;9208;42.688;23.404;2023-04-30T12:37:48;95236.31;;;16.29;100.00
18167;BME280;9208;42.688;23.404;2023-04-30T12:40:17;95232.31;;;16.24;100.00
18167;BME280;9208;42.688;23.404;2023-04-30T12:42:44;95236.16;;;16.21;100.00
18167;BME280;9208;42.688;23.404;2023-04-30T12:45:12;95236.38;;;16.23;100.00
18167;BME280;9208;42.688;23.404;2023-04-30T12:47:41;95240.94;;;16.21;100.00
18167;BME280;9208;42.688;23.404;2023-04-30T12:52:33;95239.72;;;16.16;100.00
18167;BME280;9208;42.688;23.404;2023-04-30T12:55:16;95233.09;;;16.25;100.00
18167;BME280;9208;42.688;23.404;2023-04-30T13:00:50;95225.31;;;15.99;100.00
18167;BME280;9208;42.688;23.404;2023-04-30T13:03:20;95209.38;;;15.87;100.00
18167;BME280;9208;42.688;23.404;2023-04-30T13:05:52;95204.34;;;15.85;100.00
18167;BME280;9208;42.688;23.404;2023-04-30T13:08:19;95220.31;;;15.98;100.00
18167;BME280;9208;42.688;23.404;2023-04-30T13:10:48;95219.28;;;16.01;100.00
18167;BME280;9208;42.688;23.404;2023-04-30T13:13:14;95204.81;;;16.13;100.00
18167;BME280;9208;42.688;23.404;2023-04-30T13:15:41;95217.63;;;16.35;100.00
18167;BME280;9208;42.688;23.404;2023-04-30T13:18:07;95212.22;;;16.48;100.00
18167;BME280;9208;42.688;23.404;2023-04-30T13:20:37;95215.38;;;16.57;100.00